createdAt,value
2023-05-05T00:00:15.463Z,3.90
2023-05-05T00:01:16.765Z,4.80
2023-05-05T00:02:18.165Z,5.13
2023-05-05T00:03:23.709Z,5.25
2023-05-05T00:04:25.156Z,4.47
2023-05-05T00:05:26.566Z,4.93
2023-05-05T00:06:31.543Z,4.55
2023-05-05T00:07:32.920Z,5.10
2023-05-05T00:08:34.245Z,5.17
2023-05-05T00:09:35.671Z,5.73
2023-05-05T00:10:36.988Z,3.97
2023-05-05T00:11:38.455Z,5.80
2023-05-05T00:12:39.808Z,5.85
2023-05-05T00:13:41.243Z,4.65
2023-05-05T00:14:42.580Z,6.75
2023-05-05T00:15:45.183Z,5.50
2023-05-05T00:16:47.100Z,5.82
2023-05-05T00:17:48.578Z,4.18
2023-05-05T00:18:49.862Z,6.53
2023-05-05T00:19:51.236Z,5.72
2023-05-05T00:20:52.634Z,5.88
2023-05-05T00:21:53.958Z,4.95
2023-05-05T00:22:55.556Z,4.82
2023-05-05T00:23:56.851Z,4.82
2023-05-05T00:24:58.456Z,5.05
2023-05-05T00:25:59.749Z,5.78
2023-05-05T00:27:02.376Z,6.80
2023-05-05T00:28:03.878Z,7.07
2023-05-05T00:29:05.257Z,5.05
2023-05-05T00:30:07.078Z,5.70
2023-05-05T00:31:08.620Z,5.63
2023-05-05T00:32:09.974Z,4.17
2023-05-05T00:33:11.328Z,5.75
2023-05-05T00:34:12.677Z,6.60
2023-05-05T00:35:14.088Z,5.68
2023-05-05T00:36:15.387Z,4.57
2023-05-05T00:37:17.237Z,4.38
2023-05-05T00:38:18.534Z,4.60
2023-05-05T00:39:20.138Z,3.88
2023-05-05T00:40:21.695Z,7.75
2023-05-05T00:41:23.124Z,5.82
2023-05-05T00:42:24.523Z,7.50
2023-05-05T00:43:25.824Z,5.47
2023-05-05T00:44:39.937Z,5.30
2023-05-05T00:45:44.177Z,4.35
2023-05-05T00:46:45.621Z,5.82
2023-05-05T00:48:00.409Z,6.20
2023-05-05T00:49:01.933Z,4.78
2023-05-05T00:50:04.103Z,7.38
2023-05-05T00:51:08.763Z,6.35
2023-05-05T00:52:10.806Z,6.32
2023-05-05T00:53:12.392Z,4.93
2023-05-05T00:54:13.731Z,4.68
2023-05-05T00:55:15.085Z,6.03
2023-05-05T00:56:21.708Z,6.93
2023-05-05T00:57:23.486Z,7.67
2023-05-05T00:58:24.808Z,9.02
2023-05-05T00:59:27.387Z,4.00
2023-05-05T01:00:29.948Z,5.15
2023-05-05T01:01:31.413Z,6.15
2023-05-05T01:02:32.967Z,6.07
2023-05-05T01:03:41.549Z,5.22
2023-05-05T01:04:43.440Z,8.30
2023-05-05T01:06:05.166Z,6.30
2023-05-05T01:07:14.969Z,5.82
2023-05-05T01:08:36.974Z,5.65
2023-05-05T01:09:38.306Z,8.18
2023-05-05T01:10:48.740Z,5.63
2023-05-05T01:11:53.773Z,6.60
2023-05-05T01:13:06.082Z,6.72
2023-05-05T01:14:10.541Z,7.28
2023-05-05T01:15:17.630Z,5.78
2023-05-05T01:16:23.452Z,7.90
2023-05-05T01:17:33.625Z,6.18
2023-05-05T01:18:34.924Z,5.03
2023-05-05T01:19:36.204Z,4.88
2023-05-05T01:20:40.356Z,13.73
2023-05-05T01:21:45.179Z,4.30
2023-05-05T01:22:50.902Z,4.27
2023-05-05T01:23:58.274Z,5.63
2023-05-05T01:25:11.343Z,4.40
2023-05-05T01:26:24.346Z,4.60
2023-05-05T01:27:31.904Z,5.07
2023-05-05T01:28:50.832Z,4.83
2023-05-05T01:30:03.162Z,5.28
2023-05-05T01:31:08.947Z,7.67
2023-05-05T01:32:14.197Z,4.30
2023-05-05T01:33:18.684Z,5.47
2023-05-05T01:34:25.209Z,7.40
2023-05-05T01:35:31.753Z,6.65
2023-05-05T01:36:36.231Z,4.75
2023-05-05T01:37:47.469Z,5.70
2023-05-05T01:38:51.596Z,5.60
2023-05-05T01:39:55.763Z,5.97
2023-05-05T01:41:03.611Z,4.73
2023-05-05T01:42:08.150Z,4.73
2023-05-05T01:43:10.262Z,5.57
2023-05-05T01:44:12.578Z,4.68
2023-05-05T01:45:14.469Z,8.38
2023-05-05T01:46:16.369Z,7.23
2023-05-05T01:47:19.216Z,6.82
2023-05-05T01:48:22.001Z,6.23
2023-05-05T01:49:23.715Z,6.00
2023-05-05T01:50:27.328Z,5.43
2023-05-05T01:51:29.245Z,7.93
2023-05-05T01:52:31.355Z,5.38
2023-05-05T01:53:34.185Z,6.73
2023-05-05T01:54:35.835Z,5.37
2023-05-05T01:55:39.011Z,6.40
2023-05-05T01:56:41.529Z,6.60
2023-05-05T01:57:43.548Z,9.68
2023-05-05T01:58:46.552Z,4.73
2023-05-05T01:59:49.752Z,6.90
2023-05-05T02:00:51.854Z,6.27
2023-05-05T02:01:54.134Z,5.97
2023-05-05T02:02:59.671Z,6.40
2023-05-05T02:04:02.194Z,5.23
2023-05-05T02:05:04.998Z,8.50
2023-05-05T02:06:07.173Z,5.20
2023-05-05T02:07:10.039Z,7.70
2023-05-05T02:08:11.897Z,6.77
2023-05-05T02:09:13.644Z,6.20
2023-05-05T02:10:15.029Z,6.87
2023-05-05T02:11:16.988Z,5.30
2023-05-05T02:12:19.063Z,6.40
2023-05-05T02:13:21.212Z,6.50
2023-05-05T02:14:23.114Z,6.87
2023-05-05T02:15:24.935Z,7.97
2023-05-05T02:16:26.910Z,7.37
2023-05-05T02:17:30.503Z,6.73
2023-05-05T02:18:35.599Z,5.43
2023-05-05T02:19:39.371Z,7.87
2023-05-05T02:20:40.824Z,7.80
2023-05-05T02:21:42.234Z,6.53
2023-05-05T02:22:43.981Z,8.10
2023-05-05T02:23:46.579Z,4.47
2023-05-05T02:24:47.909Z,7.47
2023-05-05T02:25:50.440Z,6.43
2023-05-05T02:26:52.772Z,6.23
2023-05-05T02:27:56.788Z,7.83
2023-05-05T02:29:14.264Z,5.50
2023-05-05T02:30:17.993Z,6.30
2023-05-05T02:31:21.109Z,5.30
2023-05-05T02:32:25.614Z,4.90
2023-05-05T02:33:29.222Z,5.57
2023-05-05T02:34:33.592Z,6.97
2023-05-05T02:35:36.730Z,6.17
2023-05-05T02:36:40.722Z,6.43
2023-05-05T02:37:44.736Z,8.63
2023-05-05T02:38:48.023Z,8.67
2023-05-05T02:39:58.506Z,8.97
2023-05-05T02:41:02.072Z,6.70
2023-05-05T02:42:04.675Z,6.53
2023-05-05T02:43:10.869Z,7.60
2023-05-05T02:44:13.077Z,7.70
2023-05-05T02:45:19.878Z,7.53
2023-05-05T02:46:23.153Z,7.80
2023-05-05T02:47:42.345Z,7.00
2023-05-05T02:48:44.663Z,5.37
2023-05-05T02:49:46.028Z,5.87
2023-05-05T02:50:47.412Z,6.10
2023-05-05T02:51:57.848Z,7.93
2023-05-05T02:53:01.924Z,6.80
2023-05-05T02:54:03.970Z,6.27
2023-05-05T02:55:05.744Z,6.33
2023-05-05T02:56:23.150Z,5.97
2023-05-05T02:57:35.604Z,7.40
2023-05-05T02:58:52.851Z,7.20
2023-05-05T02:59:57.923Z,5.53
2023-05-05T03:01:25.544Z,8.20
2023-05-05T03:02:28.925Z,6.47
2023-05-05T03:03:36.487Z,8.80
2023-05-05T03:05:16.234Z,5.97
2023-05-05T03:06:21.307Z,5.73
2023-05-05T03:07:30.460Z,5.30
2023-05-05T03:08:51.591Z,6.07
2023-05-05T03:10:01.978Z,7.17
2023-05-05T03:11:06.517Z,9.10
2023-05-05T03:12:13.583Z,5.87
2023-05-05T03:13:36.344Z,8.43
2023-05-05T03:14:43.301Z,7.20
2023-05-05T03:15:49.231Z,7.53
2023-05-05T03:16:54.572Z,9.50
2023-05-05T03:17:56.527Z,7.17
2023-05-05T03:18:59.439Z,10.53
2023-05-05T03:20:03.482Z,8.17
2023-05-05T03:21:09.858Z,10.23
2023-05-05T03:22:14.329Z,7.93
2023-05-05T03:23:20.968Z,6.10
2023-05-05T03:24:24.909Z,6.67
2023-05-05T03:25:41.439Z,6.43
2023-05-05T03:26:43.326Z,7.13
2023-05-05T03:27:44.916Z,10.17
2023-05-05T03:28:48.500Z,6.57
2023-05-05T03:29:55.316Z,9.10
2023-05-05T03:30:56.944Z,6.60
2023-05-05T03:31:58.790Z,8.57
2023-05-05T03:33:00.342Z,7.77
2023-05-05T03:34:02.814Z,7.73
2023-05-05T03:35:09.654Z,7.37
2023-05-05T03:36:10.969Z,7.03
2023-05-05T03:37:12.689Z,13.63
2023-05-05T03:38:15.681Z,7.37
2023-05-05T03:39:18.781Z,7.23
2023-05-05T03:40:23.534Z,7.53
2023-05-05T03:41:31.323Z,9.47
2023-05-05T03:42:32.735Z,8.97
2023-05-05T03:43:34.746Z,7.10
2023-05-05T03:44:36.535Z,8.00
2023-05-05T03:45:38.066Z,7.33
2023-05-05T03:46:39.464Z,6.83
2023-05-05T03:47:44.096Z,7.93
2023-05-05T03:48:46.104Z,8.83
2023-05-05T03:49:47.456Z,8.27
2023-05-05T03:50:48.733Z,7.20
2023-05-05T03:51:51.879Z,6.90
2023-05-05T03:52:53.212Z,7.13
2023-05-05T03:53:55.012Z,8.80
2023-05-05T03:54:57.728Z,9.27
2023-05-05T03:55:59.022Z,10.37
2023-05-05T03:57:00.454Z,7.93
2023-05-05T03:58:01.783Z,7.57
2023-05-05T03:59:03.133Z,8.27
2023-05-05T04:00:04.816Z,9.47
2023-05-05T04:01:15.671Z,12.30
2023-05-05T04:02:22.176Z,7.90
2023-05-05T04:03:24.011Z,8.93
2023-05-05T04:04:25.762Z,9.73
2023-05-05T04:05:30.459Z,11.00
2023-05-05T04:06:33.119Z,8.97
2023-05-05T04:07:47.101Z,10.07
2023-05-05T04:08:59.709Z,8.53
2023-05-05T04:10:01.296Z,8.93
2023-05-05T04:11:08.672Z,8.30
2023-05-05T04:12:11.394Z,8.27
2023-05-05T04:13:13.198Z,8.73
2023-05-05T04:14:15.294Z,10.63
2023-05-05T04:15:16.664Z,7.53
2023-05-05T04:16:19.741Z,8.57
2023-05-05T04:17:21.071Z,8.27
2023-05-05T04:18:23.157Z,7.80
2023-05-05T04:19:25.206Z,8.60
2023-05-05T04:20:26.576Z,7.80
2023-05-05T04:21:28.938Z,7.67
2023-05-05T04:22:30.437Z,8.40
2023-05-05T04:23:32.114Z,8.20
2023-05-05T04:24:33.784Z,8.27
2023-05-05T04:25:35.306Z,7.50
2023-05-05T04:26:37.144Z,9.23
2023-05-05T04:27:38.552Z,10.80
2023-05-05T04:28:40.301Z,7.40
2023-05-05T04:29:41.962Z,11.10
2023-05-05T04:30:43.331Z,8.27
2023-05-05T04:31:45.334Z,8.47
2023-05-05T04:32:46.916Z,13.03
2023-05-05T04:33:48.561Z,10.67
2023-05-05T04:34:49.891Z,9.30
2023-05-05T04:35:51.671Z,9.30
2023-05-05T04:36:53.567Z,10.00
2023-05-05T04:37:55.532Z,7.90
2023-05-05T04:38:57.260Z,8.77
2023-05-05T04:39:58.695Z,7.73
2023-05-05T04:41:00.177Z,8.63
2023-05-05T04:42:02.308Z,9.07
2023-05-05T04:43:03.712Z,9.33
2023-05-05T04:44:05.257Z,8.97
2023-05-05T04:45:06.929Z,13.33
2023-05-05T04:46:08.530Z,9.87
2023-05-05T04:47:12.609Z,11.03
2023-05-05T04:48:16.105Z,8.77
2023-05-05T04:49:17.593Z,8.60
2023-05-05T04:50:18.939Z,9.53
2023-05-05T04:51:20.427Z,7.90
2023-05-05T04:52:21.925Z,9.27
2023-05-05T04:53:23.292Z,8.93
2023-05-05T04:54:24.773Z,12.33
2023-05-05T04:55:26.081Z,9.20
2023-05-05T04:56:31.360Z,8.07
2023-05-05T04:57:36.318Z,8.77
2023-05-05T04:59:00.598Z,8.67
2023-05-05T05:00:16.575Z,9.40
2023-05-05T05:01:18.074Z,9.77
2023-05-05T05:02:19.749Z,8.43
2023-05-05T05:03:21.345Z,8.80
2023-05-05T05:04:22.792Z,9.97
2023-05-05T05:05:25.852Z,8.20
2023-05-05T05:06:29.000Z,8.03
2023-05-05T05:07:32.936Z,8.57
2023-05-05T05:08:41.196Z,11.10
2023-05-05T05:09:51.536Z,16.70
2023-05-05T05:12:26.779Z,13.97
2023-05-05T05:13:41.987Z,10.13
2023-05-05T05:16:44.997Z,12.73
2023-05-05T05:17:46.893Z,8.70
2023-05-05T05:18:48.658Z,14.47
2023-05-05T05:19:49.988Z,11.03
2023-05-05T05:20:51.553Z,22.73
2023-05-05T05:21:53.091Z,13.47
2023-05-05T05:22:54.440Z,11.30
2023-05-05T05:23:56.769Z,9.77
2023-05-05T05:24:59.238Z,12.82
2023-05-05T05:26:00.990Z,12.93
2023-05-05T05:27:03.405Z,10.18
2023-05-05T05:28:09.623Z,9.13
2023-05-05T05:29:15.581Z,8.07
2023-05-05T05:30:17.199Z,7.95
2023-05-05T05:31:18.885Z,7.95
2023-05-05T05:32:21.027Z,10.13
2023-05-05T05:33:23.113Z,8.93
2023-05-05T05:34:25.944Z,10.80
2023-05-05T05:35:27.436Z,8.50
2023-05-05T05:36:28.962Z,7.97
2023-05-05T05:37:31.462Z,10.10
2023-05-05T05:38:33.773Z,9.63
2023-05-05T05:39:37.372Z,7.10
2023-05-05T05:40:39.109Z,8.68
2023-05-05T05:41:40.644Z,8.98
2023-05-05T05:42:42.286Z,8.73
2023-05-05T05:43:44.176Z,12.55
2023-05-05T05:44:45.809Z,9.23
2023-05-05T05:45:47.425Z,9.35
2023-05-05T05:46:49.683Z,10.80
2023-05-05T05:47:51.829Z,8.07
2023-05-05T05:48:53.722Z,8.25
2023-05-05T05:49:57.848Z,8.18
2023-05-05T05:50:59.421Z,7.85
2023-05-05T05:52:01.117Z,9.13
2023-05-05T05:53:02.635Z,12.57
2023-05-05T05:54:04.649Z,10.10
2023-05-05T05:55:06.768Z,10.45
2023-05-05T05:56:09.907Z,7.25
2023-05-05T05:57:12.058Z,9.40
2023-05-05T05:58:13.475Z,8.77
2023-05-05T05:59:14.960Z,12.85
2023-05-05T06:00:16.563Z,7.15
2023-05-05T06:01:23.879Z,7.95
2023-05-05T06:02:27.317Z,7.78
2023-05-05T06:03:29.203Z,11.32
2023-05-05T06:04:31.747Z,7.40
2023-05-05T06:05:34.520Z,7.00
2023-05-05T06:06:36.075Z,9.73
2023-05-05T06:07:39.514Z,8.15
2023-05-05T06:08:41.254Z,6.30
2023-05-05T06:09:42.967Z,9.60
2023-05-05T06:10:44.768Z,6.80
2023-05-05T06:11:50.851Z,10.75
2023-05-05T06:12:52.531Z,8.40
2023-05-05T06:13:54.073Z,8.20
2023-05-05T06:14:56.104Z,9.93
2023-05-05T06:17:40.747Z,7.90
2023-05-05T06:18:48.902Z,8.48
2023-05-05T06:19:51.103Z,6.50
2023-05-05T06:20:53.501Z,6.50
2023-05-05T06:21:58.207Z,6.10
2023-05-05T06:22:59.914Z,7.43
2023-05-05T06:24:03.413Z,11.70
2023-05-05T06:25:05.646Z,8.52
2023-05-05T06:26:07.251Z,6.65
2023-05-05T06:27:08.765Z,9.38
2023-05-05T06:28:10.193Z,8.90
2023-05-05T06:29:12.412Z,6.28
2023-05-05T06:30:14.733Z,6.63
2023-05-05T06:31:16.516Z,6.38
2023-05-05T06:32:18.057Z,6.13
2023-05-05T06:33:19.517Z,6.30
2023-05-05T06:34:21.167Z,10.52
2023-05-05T06:35:22.702Z,5.78
2023-05-05T06:36:24.656Z,5.60
2023-05-05T06:37:26.399Z,7.68
2023-05-05T06:38:28.039Z,9.23
2023-05-05T06:39:29.693Z,6.68
2023-05-05T06:40:31.882Z,5.90
2023-05-05T06:41:33.827Z,5.55
2023-05-05T06:42:38.591Z,7.45
2023-05-05T06:45:27.747Z,6.45
2023-05-05T06:46:31.531Z,7.35
2023-05-05T06:47:34.892Z,6.78
2023-05-05T06:48:59.245Z,6.43
2023-05-05T06:50:10.031Z,6.30
2023-05-05T06:51:12.449Z,8.70
2023-05-05T06:52:21.461Z,7.53
2023-05-05T06:53:37.187Z,7.93
2023-05-05T06:54:45.115Z,6.78
2023-05-05T06:55:47.963Z,8.57
2023-05-05T06:56:54.912Z,6.78
2023-05-05T06:58:33.138Z,5.78
2023-05-05T06:59:23.969Z,9.68
2023-05-05T07:00:31.529Z,8.90
2023-05-05T07:01:35.932Z,6.03
2023-05-05T07:02:42.909Z,7.47
2023-05-05T07:03:53.106Z,6.65
2023-05-05T07:04:55.460Z,5.97
2023-05-05T07:05:59.722Z,6.13
2023-05-05T07:07:01.392Z,5.55
2023-05-05T07:08:03.005Z,7.60
2023-05-05T07:09:04.585Z,6.40
2023-05-05T07:10:06.718Z,5.03
2023-05-05T07:11:08.511Z,7.28
2023-05-05T07:12:13.036Z,7.13
2023-05-05T07:13:23.397Z,5.93
2023-05-05T07:14:25.190Z,8.43
2023-05-05T07:15:29.197Z,4.93
2023-05-05T07:16:52.150Z,6.03
2023-05-05T07:17:56.184Z,7.05
2023-05-05T07:18:57.877Z,8.73
2023-05-05T07:20:07.300Z,4.85
2023-05-05T07:21:09.035Z,5.25
2023-05-05T07:22:11.536Z,6.13
2023-05-05T07:23:14.442Z,7.32
2023-05-05T07:24:21.700Z,5.05
2023-05-05T07:25:23.311Z,4.07
2023-05-05T07:26:25.375Z,4.93
2023-05-05T07:27:35.112Z,7.10
2023-05-05T07:28:39.386Z,5.38
2023-05-05T07:29:44.054Z,4.75
2023-05-05T07:30:48.407Z,4.43
2023-05-05T07:31:50.032Z,4.47
2023-05-05T07:32:51.925Z,6.40
2023-05-05T07:33:53.614Z,4.50
2023-05-05T07:34:55.401Z,6.70
2023-05-05T07:35:56.910Z,4.65
2023-05-05T07:36:58.418Z,6.25
2023-05-05T07:38:00.046Z,7.38
2023-05-05T07:39:01.849Z,6.75
2023-05-05T07:40:03.423Z,5.80
2023-05-05T07:41:04.922Z,4.80
2023-05-05T07:42:07.455Z,4.55
2023-05-05T07:43:09.051Z,4.00
2023-05-05T07:44:11.394Z,5.72
2023-05-05T07:45:13.154Z,4.43
2023-05-05T07:46:15.222Z,4.05
2023-05-05T07:47:16.968Z,5.45
2023-05-05T07:48:18.504Z,5.75
2023-05-05T07:49:20.844Z,5.35
2023-05-05T07:50:22.726Z,4.80
2023-05-05T07:51:24.226Z,5.32
2023-05-05T07:52:43.595Z,3.60
2023-05-05T07:53:52.078Z,6.88
2023-05-05T07:54:53.577Z,6.28
2023-05-05T07:55:55.789Z,4.97
2023-05-05T07:57:00.382Z,3.65
2023-05-05T07:58:03.793Z,3.42
2023-05-05T07:59:05.311Z,3.55
2023-05-05T08:00:07.491Z,3.00
2023-05-05T08:01:17.930Z,4.13
2023-05-05T08:02:19.995Z,6.20
2023-05-05T08:03:24.691Z,3.67
2023-05-05T08:04:26.768Z,3.22
2023-05-05T08:05:28.297Z,4.63
2023-05-05T08:06:31.584Z,2.70
2023-05-05T08:07:33.028Z,5.65
2023-05-05T08:08:34.652Z,4.00
2023-05-05T08:09:36.827Z,4.18
2023-05-05T08:10:38.640Z,3.25
2023-05-05T08:11:40.221Z,4.32
2023-05-05T08:12:41.756Z,3.33
2023-05-05T08:13:43.312Z,4.60
2023-05-05T08:14:44.899Z,5.05
2023-05-05T08:15:46.665Z,3.17
2023-05-05T08:16:48.211Z,3.63
2023-05-05T08:17:51.029Z,5.30
2023-05-05T08:18:52.436Z,4.38
2023-05-05T08:19:53.798Z,3.90
2023-05-05T08:20:55.156Z,5.85
2023-05-05T08:21:56.573Z,6.18
2023-05-05T08:22:57.912Z,4.85
2023-05-05T08:23:59.220Z,5.10
2023-05-05T08:25:00.638Z,6.50
2023-05-05T08:26:03.093Z,4.10
2023-05-05T08:27:04.521Z,5.68
2023-05-05T08:28:06.104Z,5.32
2023-05-05T08:29:09.528Z,7.78
2023-05-05T08:30:11.832Z,7.90
2023-05-05T08:31:13.318Z,4.63
2023-05-05T08:32:16.151Z,6.20
2023-05-05T08:33:17.509Z,3.67
2023-05-05T08:34:18.847Z,4.30
2023-05-05T08:35:20.325Z,3.95
2023-05-05T08:36:21.718Z,2.72
2023-05-05T08:37:23.120Z,4.22
2023-05-05T08:38:24.489Z,2.40
2023-05-05T08:39:25.846Z,4.82
2023-05-05T08:40:31.731Z,2.97
2023-05-05T08:41:33.094Z,5.43
2023-05-05T08:42:38.016Z,1.98
2023-05-05T08:43:41.188Z,3.65
2023-05-05T08:44:42.542Z,4.22
2023-05-05T08:45:44.514Z,3.50
2023-05-05T08:46:46.099Z,4.13
2023-05-05T08:47:47.542Z,4.03
2023-05-05T08:48:48.883Z,4.70
2023-05-05T08:49:53.784Z,6.95
2023-05-05T08:50:59.487Z,3.40
2023-05-05T08:52:02.704Z,5.68
2023-05-05T08:53:10.911Z,3.05
2023-05-05T08:54:17.767Z,5.07
2023-05-05T08:55:26.396Z,3.65
2023-05-05T08:56:33.682Z,2.75
2023-05-05T08:57:38.446Z,3.00
2023-05-05T08:58:42.544Z,3.95
2023-05-05T08:59:44.225Z,3.10
2023-05-05T09:00:48.362Z,2.70
2023-05-05T09:01:50.290Z,2.78
2023-05-05T09:02:52.731Z,3.05
2023-05-05T09:03:54.889Z,2.80
2023-05-05T09:04:56.311Z,2.75
2023-05-05T09:06:00.355Z,4.72
2023-05-05T09:07:04.162Z,3.58
2023-05-05T09:08:06.822Z,3.65
2023-05-05T09:09:12.081Z,2.40
2023-05-05T09:10:13.496Z,3.83
2023-05-05T09:11:14.854Z,5.65
2023-05-05T09:12:17.843Z,3.47
2023-05-05T09:13:19.695Z,3.25
2023-05-05T09:14:21.198Z,5.32
2023-05-05T09:15:22.644Z,2.88
2023-05-05T09:16:24.283Z,2.85
2023-05-05T09:17:26.273Z,4.80
2023-05-05T09:18:27.635Z,3.65
2023-05-05T09:19:29.160Z,4.15
2023-05-05T09:20:35.097Z,3.08
2023-05-05T09:21:40.038Z,2.97
2023-05-05T09:22:46.263Z,4.28
2023-05-05T09:24:08.578Z,6.47
2023-05-05T09:25:12.107Z,3.15
2023-05-05T09:26:14.344Z,3.95
2023-05-05T09:27:22.387Z,4.00
2023-05-05T09:28:24.061Z,2.33
2023-05-05T09:29:25.969Z,2.10
2023-05-05T09:30:27.521Z,5.00
2023-05-05T09:31:32.515Z,2.85
2023-05-05T09:32:47.159Z,3.00
2023-05-05T09:33:48.572Z,4.35
2023-05-05T09:35:02.627Z,3.38
2023-05-05T09:36:03.977Z,2.22
2023-05-05T09:37:06.080Z,2.35
2023-05-05T09:38:13.379Z,3.95
2023-05-05T09:39:16.761Z,4.30
2023-05-05T09:40:19.176Z,4.88
2023-05-05T09:41:36.078Z,4.75
2023-05-05T09:42:37.920Z,2.85
2023-05-05T09:43:51.938Z,2.35
2023-05-05T09:44:54.169Z,2.70
2023-05-05T09:46:08.068Z,3.55
2023-05-05T09:47:18.070Z,4.55
2023-05-05T09:48:28.778Z,2.95
2023-05-05T09:49:30.725Z,1.77
2023-05-05T09:50:43.291Z,4.45
2023-05-05T09:51:47.686Z,1.73
2023-05-05T09:53:01.898Z,2.70
2023-05-05T09:54:03.286Z,2.63
2023-05-05T09:55:04.808Z,1.98
2023-05-05T09:56:06.832Z,1.65
2023-05-05T09:57:08.176Z,3.15
2023-05-05T09:58:19.550Z,1.50
2023-05-05T09:59:21.607Z,1.80
2023-05-05T10:00:37.101Z,3.40
2023-05-05T10:01:38.947Z,2.47
2023-05-05T10:02:40.642Z,2.67
2023-05-05T10:03:54.305Z,3.40
2023-05-05T10:05:04.515Z,2.75
2023-05-05T10:06:07.710Z,3.20
2023-05-05T10:07:22.284Z,3.60
2023-05-05T10:08:24.971Z,1.60
2023-05-05T10:09:26.704Z,2.58
2023-05-05T10:10:29.058Z,1.88
2023-05-05T10:11:30.793Z,2.85
2023-05-05T10:12:35.522Z,2.95
2023-05-05T10:13:39.952Z,2.85
2023-05-05T10:14:41.693Z,3.42
2023-05-05T10:15:44.549Z,2.63
2023-05-05T10:16:47.530Z,2.83
2023-05-05T10:18:54.010Z,2.78
2023-05-05T10:19:56.963Z,2.55
2023-05-05T10:20:58.478Z,2.80
2023-05-05T10:22:02.892Z,3.25
2023-05-05T10:23:07.572Z,2.97
2023-05-05T10:24:16.077Z,1.70
2023-05-05T10:25:21.302Z,2.63
2023-05-05T10:26:23.149Z,2.60
2023-05-05T10:27:25.975Z,2.08
2023-05-05T10:28:47.575Z,2.22
2023-05-05T10:30:02.963Z,3.72
2023-05-05T10:31:20.034Z,1.95
2023-05-05T10:32:53.892Z,3.15
2023-05-05T10:33:55.885Z,5.85
2023-05-05T10:35:03.868Z,1.70
2023-05-05T10:36:12.783Z,3.97
2023-05-05T10:37:23.661Z,2.30
2023-05-05T10:38:31.149Z,1.83
2023-05-05T10:39:32.641Z,2.53
2023-05-05T10:40:34.433Z,4.88
2023-05-05T10:41:36.702Z,2.45
2023-05-05T10:42:41.301Z,4.30
2023-05-05T10:43:46.279Z,2.08
2023-05-05T10:44:54.169Z,3.47
2023-05-05T10:45:56.022Z,2.90
2023-05-05T10:46:57.973Z,1.35
2023-05-05T10:48:04.251Z,2.88
2023-05-05T10:49:24.271Z,2.30
2023-05-05T10:50:35.405Z,1.90
2023-05-05T10:51:41.695Z,2.60
2023-05-05T10:53:07.317Z,2.15
2023-05-05T10:54:26.830Z,2.67
2023-05-05T10:55:35.453Z,3.38
2023-05-05T10:56:40.231Z,2.65
2023-05-05T10:57:42.428Z,3.92
2023-05-05T10:58:59.679Z,1.70
2023-05-05T11:00:04.717Z,6.05
2023-05-05T11:01:26.044Z,2.30
2023-05-05T11:02:28.641Z,2.67
2023-05-05T11:03:30.188Z,1.95
2023-05-05T11:04:31.580Z,3.35
2023-05-05T11:05:32.922Z,2.40
2023-05-05T11:06:34.330Z,2.10
2023-05-05T11:07:36.386Z,2.22
2023-05-05T11:08:45.988Z,2.08
2023-05-05T11:10:03.745Z,2.95
2023-05-05T11:11:07.218Z,1.88
2023-05-05T11:12:13.744Z,2.45
2023-05-05T11:13:18.930Z,4.82
2023-05-05T11:14:31.204Z,3.63
2023-05-05T11:15:37.513Z,2.83
2023-05-05T11:16:44.206Z,2.03
2023-05-05T11:17:49.239Z,1.38
2023-05-05T11:18:50.669Z,2.67
2023-05-05T11:19:54.287Z,3.28
2023-05-05T11:21:01.694Z,2.15
2023-05-05T11:22:03.050Z,2.25
2023-05-05T11:23:05.152Z,3.17
2023-05-05T11:24:30.433Z,3.20
2023-05-05T11:25:34.896Z,2.17
2023-05-05T11:26:51.675Z,4.60
2023-05-05T11:28:12.028Z,2.53
2023-05-05T11:29:13.471Z,1.58
2023-05-05T11:30:15.109Z,2.20
2023-05-05T11:31:17.050Z,2.55
2023-05-05T11:32:24.183Z,5.25
2023-05-05T11:33:35.989Z,2.60
2023-05-05T11:34:52.731Z,2.20
2023-05-05T11:35:54.084Z,1.92
2023-05-05T11:36:57.202Z,6.15
2023-05-05T11:38:05.952Z,4.07
2023-05-05T11:39:22.110Z,4.22
2023-05-05T11:40:32.739Z,3.30
2023-05-05T11:42:10.098Z,2.83
2023-05-05T11:43:12.375Z,2.72
2023-05-05T11:44:19.537Z,3.40
2023-05-05T11:45:22.043Z,2.42
2023-05-05T11:46:27.321Z,2.15
2023-05-05T11:47:29.933Z,4.57
2023-05-05T11:48:31.327Z,2.75
2023-05-05T11:49:32.658Z,3.95
2023-05-05T11:50:34.009Z,3.78
2023-05-05T11:51:38.675Z,3.67
2023-05-05T11:52:40.051Z,3.63
2023-05-05T11:53:46.013Z,2.00
2023-05-05T11:54:48.920Z,3.92
2023-05-05T11:56:05.645Z,1.58
2023-05-05T11:57:10.144Z,6.32
2023-05-05T11:58:18.402Z,3.90
2023-05-05T11:59:19.866Z,5.35
2023-05-05T12:00:31.143Z,2.35
2023-05-05T12:01:32.796Z,4.15
2023-05-05T12:02:34.671Z,4.35
2023-05-05T12:03:37.041Z,3.53
2023-05-05T12:04:39.330Z,3.85
2023-05-05T12:05:41.043Z,4.10
2023-05-05T12:06:42.972Z,2.53
2023-05-05T12:07:44.310Z,3.30
2023-05-05T12:08:45.724Z,3.25
2023-05-05T12:09:47.670Z,3.55
2023-05-05T12:10:49.010Z,3.10
2023-05-05T12:11:57.388Z,3.58
2023-05-05T12:12:58.860Z,2.08
2023-05-05T12:14:12.513Z,5.32
2023-05-05T12:15:14.366Z,2.53
2023-05-05T12:16:16.332Z,2.40
2023-05-05T12:17:21.973Z,3.72
2023-05-05T12:18:23.417Z,3.10
2023-05-05T12:19:29.865Z,1.50
2023-05-05T12:20:35.121Z,2.53
2023-05-05T12:21:37.208Z,2.17
2023-05-05T12:22:38.927Z,2.00
2023-05-05T12:23:43.713Z,4.05
2023-05-05T12:24:45.459Z,4.93
2023-05-05T12:25:46.835Z,4.22
2023-05-05T12:26:48.507Z,4.00
2023-05-05T12:27:56.337Z,3.58
2023-05-05T12:28:58.616Z,5.63
2023-05-05T12:30:14.139Z,3.97
2023-05-05T12:31:15.858Z,3.28
2023-05-05T12:32:27.950Z,4.70
2023-05-05T12:33:29.632Z,3.20
2023-05-05T12:34:32.165Z,1.65
2023-05-05T12:35:33.634Z,2.40
2023-05-05T12:36:38.352Z,2.72
2023-05-05T12:37:40.183Z,2.80
2023-05-05T12:38:42.394Z,3.42
2023-05-05T12:39:44.100Z,2.42
2023-05-05T12:40:47.097Z,3.75
2023-05-05T12:41:48.796Z,4.80
2023-05-05T12:42:50.439Z,3.03
2023-05-05T12:43:56.137Z,4.10
2023-05-05T12:44:57.588Z,4.10
2023-05-05T12:46:09.115Z,2.15
2023-05-05T12:47:14.346Z,4.20
2023-05-05T12:48:22.296Z,3.80
2023-05-05T12:49:24.211Z,2.20
2023-05-05T12:50:32.337Z,2.92
2023-05-05T12:51:34.944Z,2.50
2023-05-05T12:52:45.582Z,4.00
2023-05-05T12:53:47.526Z,2.78
2023-05-05T12:54:54.960Z,2.47
2023-05-05T12:55:56.468Z,3.35
2023-05-05T12:56:58.686Z,3.17
2023-05-05T12:58:06.695Z,2.40
2023-05-05T12:59:09.101Z,3.30
2023-05-05T13:00:15.395Z,6.63
2023-05-05T13:01:16.752Z,2.55
2023-05-05T13:02:18.416Z,4.05
2023-05-05T13:03:20.311Z,2.78
2023-05-05T13:04:23.135Z,2.33
2023-05-05T13:05:34.238Z,3.20
2023-05-05T13:06:36.087Z,2.78
2023-05-05T13:07:49.090Z,1.70
2023-05-05T13:08:51.681Z,2.92
2023-05-05T13:10:06.498Z,4.55
2023-05-05T13:11:11.001Z,5.03
2023-05-05T13:12:16.895Z,3.00
2023-05-05T13:13:18.294Z,2.72
2023-05-05T13:14:19.642Z,1.45
2023-05-05T13:15:21.011Z,3.30
2023-05-05T13:16:22.425Z,4.57
2023-05-05T13:17:23.798Z,2.88
2023-05-05T13:18:25.114Z,2.17
2023-05-05T13:19:27.547Z,4.28
2023-05-05T13:20:29.555Z,1.38
2023-05-05T13:21:31.796Z,3.17
2023-05-05T13:22:33.829Z,4.20
2023-05-05T13:23:35.414Z,3.20
2023-05-05T13:24:49.601Z,2.90
2023-05-05T13:25:52.894Z,2.30
2023-05-05T13:26:56.202Z,1.92
2023-05-05T13:27:57.929Z,3.10
2023-05-05T13:29:00.222Z,3.60
2023-05-05T13:30:04.797Z,5.70
2023-05-05T13:31:06.921Z,2.15
2023-05-05T13:32:08.297Z,3.72
2023-05-05T13:33:09.730Z,3.45
2023-05-05T13:34:11.210Z,2.58
2023-05-05T13:35:15.369Z,3.15
2023-05-05T13:36:17.630Z,2.95
2023-05-05T13:37:22.534Z,3.00
2023-05-05T13:38:24.817Z,1.70
2023-05-05T13:39:26.182Z,3.08
2023-05-05T13:40:27.511Z,1.95
2023-05-05T13:41:28.853Z,4.50
2023-05-05T13:42:31.531Z,2.42
2023-05-05T13:43:33.052Z,3.33
2023-05-05T13:44:42.435Z,2.85
2023-05-05T13:45:43.748Z,1.95
2023-05-05T13:46:45.447Z,2.63
2023-05-05T13:47:46.779Z,2.95
2023-05-05T13:48:49.481Z,2.25
2023-05-05T13:49:54.411Z,2.63
2023-05-05T13:50:59.035Z,2.42
2023-05-05T13:52:04.910Z,3.67
2023-05-05T13:53:06.550Z,2.88
2023-05-05T13:54:07.979Z,4.72
2023-05-05T13:55:16.010Z,3.95
2023-05-05T13:56:19.313Z,1.98
2023-05-05T13:57:20.996Z,3.95
2023-05-05T13:58:22.316Z,1.85
2023-05-05T13:59:25.655Z,3.85
2023-05-05T14:00:27.761Z,2.47
2023-05-05T14:01:30.397Z,3.60
2023-05-05T14:02:31.892Z,3.17
2023-05-05T14:03:34.654Z,4.68
2023-05-05T14:04:37.522Z,3.03
2023-05-05T14:05:42.976Z,4.15
2023-05-05T14:06:44.605Z,4.68
2023-05-05T14:07:47.171Z,4.32
2023-05-05T14:08:52.064Z,3.80
2023-05-05T14:09:53.627Z,2.75
2023-05-05T14:10:54.966Z,4.28
2023-05-05T14:11:56.342Z,4.10
2023-05-05T14:12:57.872Z,3.13
2023-05-05T14:13:59.300Z,2.05
2023-05-05T14:15:00.949Z,3.30
2023-05-05T14:16:02.753Z,1.80
2023-05-05T14:17:04.146Z,4.32
2023-05-05T14:18:05.684Z,3.13
2023-05-05T14:19:07.046Z,3.35
2023-05-05T14:20:08.581Z,2.67
2023-05-05T14:21:09.953Z,6.07
2023-05-05T14:22:11.304Z,2.65
2023-05-05T14:23:12.653Z,2.63